sensor_id;sensor_type;location;lat;lon;timestamp;P1;durP1;ratioP1;P2;durP2;ratioP2
72517;SDS011;60540;51.178;6.738;2024-03-02T00:02:17;2.72;;;1.35;;
72517;SDS011;60540;51.178;6.738;2024-03-02T00:05:01;3.90;;;1.25;;
72517;SDS011;60540;51.178;6.738;2024-03-02T00:07:46;2.95;;;1.20;;
72517;SDS011;60540;51.178;6.738;2024-03-02T00:10:39;3.28;;;1.23;;
72517;SDS011;60540;51.178;6.738;2024-03-02T00:13:24;2.97;;;1.20;;
72517;SDS011;60540;51.178;6.738;2024-03-02T00:16:08;2.50;;;1.27;;
72517;SDS011;60540;51.178;6.738;2024-03-02T00:18:53;2.30;;;1.10;;
72517;SDS011;60540;51.178;6.738;2024-03-02T00:21:37;2.70;;;1.10;;
72517;SDS011;60540;51.178;6.738;2024-03-02T00:24:31;3.13;;;1.30;;
72517;SDS011;60540;51.178;6.738;2024-03-02T00:27:16;2.67;;;1.20;;
72517;SDS011;60540;51.178;6.738;2024-03-02T00:30:05;2.75;;;1.10;;
72517;SDS011;60540;51.178;6.738;2024-03-02T00:32:52;2.35;;;0.98;;
72517;SDS011;60540;51.178;6.738;2024-03-02T00:35:37;2.47;;;1.05;;
72517;SDS011;60540;51.178;6.738;2024-03-02T00:38:21;2.60;;;1.20;;
72517;SDS011;60540;51.178;6.738;2024-03-02T00:41:06;4.10;;;1.30;;
72517;SDS011;60540;51.178;6.738;2024-03-02T00:46:45;2.83;;;1.08;;
72517;SDS011;60540;51.178;6.738;2024-03-02T00:49:29;2.20;;;1.10;;
72517;SDS011;60540;51.178;6.738;2024-03-02T00:52:13;3.38;;;1.40;;
72517;SDS011;60540;51.178;6.738;2024-03-02T00:54:58;2.40;;;1.20;;
72517;SDS011;60540;51.178;6.738;2024-03-02T00:57:42;2.72;;;1.42;;
72517;SDS011;60540;51.178;6.738;2024-03-02T01:00:28;2.60;;;1.08;;
72517;SDS011;60540;51.178;6.738;2024-03-02T01:03:12;3.25;;;1.38;;
72517;SDS011;60540;51.178;6.738;2024-03-02T01:05:56;3.50;;;1.33;;
72517;SDS011;60540;51.178;6.738;2024-03-02T01:08:40;4.45;;;1.50;;
72517;SDS011;60540;51.178;6.738;2024-03-02T01:11:25;2.05;;;1.00;;
72517;SDS011;60540;51.178;6.738;2024-03-02T01:14:09;2.85;;;1.23;;
72517;SDS011;60540;51.178;6.738;2024-03-02T01:16:54;4.05;;;1.15;;
72517;SDS011;60540;51.178;6.738;2024-03-02T01:19:38;2.67;;;1.58;;
72517;SDS011;60540;51.178;6.738;2024-03-02T01:22:24;3.10;;;1.25;;
72517;SDS011;60540;51.178;6.738;2024-03-02T01:25:09;3.00;;;1.20;;
72517;SDS011;60540;51.178;6.738;2024-03-02T01:27:53;1.92;;;0.90;;
72517;SDS011;60540;51.178;6.738;2024-03-02T01:30:38;2.33;;;1.65;;
72517;SDS011;60540;51.178;6.738;2024-03-02T01:33:22;2.45;;;1.15;;
72517;SDS011;60540;51.178;6.738;2024-03-02T01:36:06;4.00;;;1.38;;
72517;SDS011;60540;51.178;6.738;2024-03-02T01:38:52;2.22;;;1.17;;
72517;SDS011;60540;51.178;6.738;2024-03-02T01:41:36;2.00;;;1.00;;
72517;SDS011;60540;51.178;6.738;2024-03-02T01:44:21;2.90;;;1.00;;
72517;SDS011;60540;51.178;6.738;2024-03-02T01:47:05;1.92;;;0.90;;
72517;SDS011;60540;51.178;6.738;2024-03-02T01:49:49;2.63;;;0.93;;
72517;SDS011;60540;51.178;6.738;2024-03-02T01:52:34;2.67;;;1.10;;
72517;SDS011;60540;51.178;6.738;2024-03-02T01:55:18;2.78;;;0.98;;
72517;SDS011;60540;51.178;6.738;2024-03-02T01:58:02;2.63;;;1.00;;
72517;SDS011;60540;51.178;6.738;2024-03-02T02:00:47;3.05;;;1.08;;
72517;SDS011;60540;51.178;6.738;2024-03-02T02:03:31;2.45;;;1.20;;
72517;SDS011;60540;51.178;6.738;2024-03-02T02:06:16;1.90;;;1.08;;
72517;SDS011;60540;51.178;6.738;2024-03-02T02:09:00;3.15;;;1.30;;
72517;SDS011;60540;51.178;6.738;2024-03-02T02:11:45;2.05;;;1.17;;
72517;SDS011;60540;51.178;6.738;2024-03-02T02:14:29;2.22;;;0.90;;
72517;SDS011;60540;51.178;6.738;2024-03-02T02:17:13;1.52;;;1.00;;
72517;SDS011;60540;51.178;6.738;2024-03-02T02:19:58;2.25;;;1.10;;
72517;SDS011;60540;51.178;6.738;2024-03-02T02:22:52;2.65;;;1.20;;
72517;SDS011;60540;51.178;6.738;2024-03-02T02:25:39;1.67;;;1.00;;
72517;SDS011;60540;51.178;6.738;2024-03-02T02:28:23;3.90;;;0.98;;
72517;SDS011;60540;51.178;6.738;2024-03-02T02:31:07;2.60;;;1.13;;
72517;SDS011;60540;51.178;6.738;2024-03-02T02:33:52;1.90;;;1.00;;
72517;SDS011;60540;51.178;6.738;2024-03-02T02:36:37;2.75;;;1.02;;
72517;SDS011;60540;51.178;6.738;2024-03-02T02:39:23;2.22;;;1.00;;
72517;SDS011;60540;51.178;6.738;2024-03-02T02:42:07;2.20;;;1.00;;
72517;SDS011;60540;51.178;6.738;2024-03-02T02:44:51;2.38;;;1.20;;
72517;SDS011;60540;51.178;6.738;2024-03-02T02:47:36;2.65;;;1.10;;
72517;SDS011;60540;51.178;6.738;2024-03-02T02:50:20;3.42;;;1.20;;
72517;SDS011;60540;51.178;6.738;2024-03-02T02:53:04;2.40;;;1.27;;
72517;SDS011;60540;51.178;6.738;2024-03-02T02:55:50;2.28;;;1.13;;
72517;SDS011;60540;51.178;6.738;2024-03-02T02:58:34;2.58;;;1.30;;
72517;SDS011;60540;51.178;6.738;2024-03-02T03:01:18;3.03;;;1.40;;
72517;SDS011;60540;51.178;6.738;2024-03-02T03:04:02;2.30;;;1.20;;
72517;SDS011;60540;51.178;6.738;2024-03-02T03:06:47;1.83;;;1.00;;
72517;SDS011;60540;51.178;6.738;2024-03-02T03:09:32;2.38;;;1.30;;
72517;SDS011;60540;51.178;6.738;2024-03-02T03:12:16;2.10;;;1.00;;
72517;SDS011;60540;51.178;6.738;2024-03-02T03:15:00;2.10;;;0.95;;
72517;SDS011;60540;51.178;6.738;2024-03-02T03:20:31;3.90;;;1.52;;
72517;SDS011;60540;51.178;6.738;2024-03-02T03:23:15;1.70;;;1.02;;
72517;SDS011;60540;51.178;6.738;2024-03-02T03:26:00;2.25;;;1.05;;
72517;SDS011;60540;51.178;6.738;2024-03-02T03:28:44;3.33;;;1.30;;
72517;SDS011;60540;51.178;6.738;2024-03-02T03:31:29;3.20;;;1.20;;
72517;SDS011;60540;51.178;6.738;2024-03-02T03:34:13;3.55;;;1.30;;
72517;SDS011;60540;51.178;6.738;2024-03-02T03:36:59;3.03;;;1.13;;
72517;SDS011;60540;51.178;6.738;2024-03-02T03:39:43;3.58;;;0.98;;
72517;SDS011;60540;51.178;6.738;2024-03-02T03:42:28;2.05;;;1.02;;
72517;SDS011;60540;51.178;6.738;2024-03-02T03:45:12;3.42;;;1.50;;
72517;SDS011;60540;51.178;6.738;2024-03-02T03:47:56;2.60;;;1.10;;
72517;SDS011;60540;51.178;6.738;2024-03-02T03:50:41;3.00;;;1.20;;
72517;SDS011;60540;51.178;6.738;2024-03-02T03:53:25;2.80;;;1.10;;
72517;SDS011;60540;51.178;6.738;2024-03-02T03:56:09;3.75;;;1.30;;
72517;SDS011;60540;51.178;6.738;2024-03-02T03:58:54;2.67;;;1.10;;
72517;SDS011;60540;51.178;6.738;2024-03-02T04:01:38;2.58;;;1.23;;
72517;SDS011;60540;51.178;6.738;2024-03-02T04:04:22;1.90;;;0.93;;
72517;SDS011;60540;51.178;6.738;2024-03-02T04:07:07;2.38;;;1.13;;
72517;SDS011;60540;51.178;6.738;2024-03-02T04:09:51;2.17;;;1.10;;
72517;SDS011;60540;51.178;6.738;2024-03-02T04:12:38;2.70;;;1.10;;
72517;SDS011;60540;51.178;6.738;2024-03-02T04:15:22;2.38;;;1.10;;
72517;SDS011;60540;51.178;6.738;2024-03-02T04:18:07;2.38;;;1.05;;
72517;SDS011;60540;51.178;6.738;2024-03-02T04:20:51;2.72;;;1.08;;
72517;SDS011;60540;51.178;6.738;2024-03-02T04:23:36;1.92;;;1.10;;
72517;SDS011;60540;51.178;6.738;2024-03-02T04:26:20;3.75;;;1.30;;
72517;SDS011;60540;51.178;6.738;2024-03-02T04:29:06;1.52;;;0.90;;
72517;SDS011;60540;51.178;6.738;2024-03-02T04:31:50;5.80;;;1.20;;
72517;SDS011;60540;51.178;6.738;2024-03-02T04:34:34;2.60;;;0.95;;
72517;SDS011;60540;51.178;6.738;2024-03-02T04:37:18;4.63;;;1.10;;
72517;SDS011;60540;51.178;6.738;2024-03-02T04:40:03;2.00;;;0.98;;
72517;SDS011;60540;51.178;6.738;2024-03-02T04:42:48;3.33;;;1.13;;
72517;SDS011;60540;51.178;6.738;2024-03-02T04:45:33;2.00;;;1.10;;
72517;SDS011;60540;51.178;6.738;2024-03-02T04:48:17;3.15;;;1.20;;
72517;SDS011;60540;51.178;6.738;2024-03-02T04:51:03;3.33;;;1.25;;
72517;SDS011;60540;51.178;6.738;2024-03-02T04:53:47;2.58;;;1.10;;
72517;SDS011;60540;51.178;6.738;2024-03-02T04:56:31;4.47;;;1.15;;
72517;SDS011;60540;51.178;6.738;2024-03-02T04:59:16;3.75;;;1.10;;
72517;SDS011;60540;51.178;6.738;2024-03-02T05:02:01;2.40;;;1.23;;
72517;SDS011;60540;51.178;6.738;2024-03-02T05:04:45;2.22;;;1.00;;
72517;SDS011;60540;51.178;6.738;2024-03-02T05:07:30;2.60;;;1.20;;
72517;SDS011;60540;51.178;6.738;2024-03-02T05:10:14;2.55;;;1.20;;
72517;SDS011;60540;51.178;6.738;2024-03-02T05:12:58;2.38;;;1.10;;
72517;SDS011;60540;51.178;6.738;2024-03-02T05:15:43;3.10;;;1.20;;
72517;SDS011;60540;51.178;6.738;2024-03-02T05:18:28;2.85;;;1.20;;
72517;SDS011;60540;51.178;6.738;2024-03-02T05:21:12;2.35;;;1.08;;
72517;SDS011;60540;51.178;6.738;2024-03-02T05:23:56;2.90;;;1.10;;
72517;SDS011;60540;51.178;6.738;2024-03-02T05:26:40;3.42;;;1.20;;
72517;SDS011;60540;51.178;6.738;2024-03-02T05:29:25;3.88;;;1.60;;
72517;SDS011;60540;51.178;6.738;2024-03-02T05:32:09;1.80;;;1.00;;
72517;SDS011;60540;51.178;6.738;2024-03-02T05:34:53;1.90;;;1.00;;
72517;SDS011;60540;51.178;6.738;2024-03-02T05:37:37;3.40;;;1.35;;
72517;SDS011;60540;51.178;6.738;2024-03-02T05:40:21;2.25;;;1.00;;
72517;SDS011;60540;51.178;6.738;2024-03-02T05:43:05;4.65;;;1.40;;
72517;SDS011;60540;51.178;6.738;2024-03-02T05:45:50;4.32;;;1.40;;
72517;SDS011;60540;51.178;6.738;2024-03-02T05:48:34;3.15;;;1.50;;
72517;SDS011;60540;51.178;6.738;2024-03-02T05:51:19;4.18;;;1.60;;
72517;SDS011;60540;51.178;6.738;2024-03-02T05:54:03;4.05;;;1.35;;
72517;SDS011;60540;51.178;6.738;2024-03-02T05:56:47;3.15;;;1.50;;
72517;SDS011;60540;51.178;6.738;2024-03-02T05:59:31;2.92;;;1.42;;
72517;SDS011;60540;51.178;6.738;2024-03-02T06:02:15;4.53;;;1.70;;
72517;SDS011;60540;51.178;6.738;2024-03-02T06:04:59;4.00;;;1.25;;
72517;SDS011;60540;51.178;6.738;2024-03-02T06:07:43;2.80;;;1.50;;
72517;SDS011;60540;51.178;6.738;2024-03-02T06:10:28;3.40;;;1.40;;
72517;SDS011;60540;51.178;6.738;2024-03-02T06:13:12;2.72;;;1.30;;
72517;SDS011;60540;51.178;6.738;2024-03-02T06:15:56;3.75;;;1.23;;
72517;SDS011;60540;51.178;6.738;2024-03-02T06:18:41;3.78;;;1.45;;
72517;SDS011;60540;51.178;6.738;2024-03-02T06:21:25;3.15;;;1.30;;
72517;SDS011;60540;51.178;6.738;2024-03-02T06:24:10;3.17;;;1.30;;
72517;SDS011;60540;51.178;6.738;2024-03-02T06:26:54;3.83;;;1.55;;
72517;SDS011;60540;51.178;6.738;2024-03-02T06:29:38;3.22;;;1.48;;
72517;SDS011;60540;51.178;6.738;2024-03-02T06:32:22;3.50;;;1.23;;
72517;SDS011;60540;51.178;6.738;2024-03-02T06:35:09;3.60;;;1.40;;
72517;SDS011;60540;51.178;6.738;2024-03-02T06:37:54;2.55;;;1.27;;
72517;SDS011;60540;51.178;6.738;2024-03-02T06:40:38;2.70;;;1.35;;
72517;SDS011;60540;51.178;6.738;2024-03-02T06:43:23;3.10;;;1.27;;
72517;SDS011;60540;51.178;6.738;2024-03-02T06:46:07;2.67;;;1.42;;
72517;SDS011;60540;51.178;6.738;2024-03-02T06:48:53;1.98;;;1.15;;
72517;SDS011;60540;51.178;6.738;2024-03-02T06:51:38;2.53;;;1.55;;
72517;SDS011;60540;51.178;6.738;2024-03-02T06:54:22;2.63;;;1.20;;
72517;SDS011;60540;51.178;6.738;2024-03-02T06:57:06;2.92;;;1.30;;
72517;SDS011;60540;51.178;6.738;2024-03-02T06:59:50;3.00;;;1.45;;
72517;SDS011;60540;51.178;6.738;2024-03-02T07:02:37;3.97;;;1.30;;
72517;SDS011;60540;51.178;6.738;2024-03-02T07:05:22;3.00;;;1.58;;
72517;SDS011;60540;51.178;6.738;2024-03-02T07:08:06;4.35;;;1.73;;
72517;SDS011;60540;51.178;6.738;2024-03-02T07:10:50;3.03;;;1.35;;
72517;SDS011;60540;51.178;6.738;2024-03-02T07:13:35;3.58;;;1.63;;
72517;SDS011;60540;51.178;6.738;2024-03-02T07:16:19;3.83;;;1.70;;
72517;SDS011;60540;51.178;6.738;2024-03-02T07:19:12;3.35;;;1.20;;
72517;SDS011;60540;51.178;6.738;2024-03-02T07:21:56;3.47;;;1.33;;
72517;SDS011;60540;51.178;6.738;2024-03-02T07:24:40;4.85;;;1.55;;
72517;SDS011;60540;51.178;6.738;2024-03-02T07:27:25;2.80;;;1.50;;
72517;SDS011;60540;51.178;6.738;2024-03-02T07:30:13;2.47;;;1.15;;
72517;SDS011;60540;51.178;6.738;2024-03-02T07:32:58;4.30;;;1.52;;
72517;SDS011;60540;51.178;6.738;2024-03-02T07:35:42;3.38;;;1.70;;
72517;SDS011;60540;51.178;6.738;2024-03-02T07:38:27;5.55;;;1.80;;
72517;SDS011;60540;51.178;6.738;2024-03-02T07:41:12;3.58;;;1.75;;
72517;SDS011;60540;51.178;6.738;2024-03-02T07:43:57;4.45;;;1.70;;
72517;SDS011;60540;51.178;6.738;2024-03-02T07:46:41;3.60;;;1.48;;
72517;SDS011;60540;51.178;6.738;2024-03-02T07:49:26;3.25;;;1.42;;
72517;SDS011;60540;51.178;6.738;2024-03-02T07:52:11;3.33;;;1.50;;
72517;SDS011;60540;51.178;6.738;2024-03-02T07:54:55;4.53;;;1.42;;
72517;SDS011;60540;51.178;6.738;2024-03-02T07:57:40;3.35;;;1.52;;
72517;SDS011;60540;51.178;6.738;2024-03-02T08:00:24;3.30;;;1.40;;
72517;SDS011;60540;51.178;6.738;2024-03-02T08:03:09;3.75;;;1.70;;
72517;SDS011;60540;51.178;6.738;2024-03-02T08:05:56;4.70;;;1.67;;
72517;SDS011;60540;51.178;6.738;2024-03-02T08:08:41;3.30;;;1.45;;
72517;SDS011;60540;51.178;6.738;2024-03-02T08:11:25;2.95;;;1.58;;
72517;SDS011;60540;51.178;6.738;2024-03-02T08:14:11;2.85;;;1.30;;
72517;SDS011;60540;51.178;6.738;2024-03-02T08:16:55;3.63;;;1.40;;
72517;SDS011;60540;51.178;6.738;2024-03-02T08:19:40;3.00;;;1.40;;
72517;SDS011;60540;51.178;6.738;2024-03-02T08:22:25;2.83;;;1.20;;
72517;SDS011;60540;51.178;6.738;2024-03-02T08:25:10;4.47;;;1.40;;
72517;SDS011;60540;51.178;6.738;2024-03-02T08:27:55;1.80;;;0.80;;
72517;SDS011;60540;51.178;6.738;2024-03-02T08:30:39;2.55;;;1.05;;
72517;SDS011;60540;51.178;6.738;2024-03-02T08:33:23;2.70;;;1.30;;
72517;SDS011;60540;51.178;6.738;2024-03-02T08:36:08;2.28;;;1.38;;
72517;SDS011;60540;51.178;6.738;2024-03-02T08:38:53;5.03;;;1.17;;
72517;SDS011;60540;51.178;6.738;2024-03-02T08:41:37;2.35;;;1.10;;
72517;SDS011;60540;51.178;6.738;2024-03-02T08:44:21;2.97;;;1.35;;
72517;SDS011;60540;51.178;6.738;2024-03-02T08:47:06;2.75;;;1.02;;
72517;SDS011;60540;51.178;6.738;2024-03-02T08:49:50;3.03;;;1.40;;
72517;SDS011;60540;51.178;6.738;2024-03-02T08:52:35;2.50;;;1.05;;
72517;SDS011;60540;51.178;6.738;2024-03-02T08:55:19;2.92;;;1.10;;
72517;SDS011;60540;51.178;6.738;2024-03-02T08:58:03;1.90;;;0.93;;
72517;SDS011;60540;51.178;6.738;2024-03-02T09:00:47;2.55;;;1.40;;
72517;SDS011;60540;51.178;6.738;2024-03-02T09:03:32;2.50;;;1.00;;
72517;SDS011;60540;51.178;6.738;2024-03-02T09:06:17;2.38;;;1.10;;
72517;SDS011;60540;51.178;6.738;2024-03-02T09:09:01;2.33;;;1.00;;
72517;SDS011;60540;51.178;6.738;2024-03-02T09:11:46;2.88;;;1.15;;
72517;SDS011;60540;51.178;6.738;2024-03-02T09:14:31;4.45;;;1.00;;
72517;SDS011;60540;51.178;6.738;2024-03-02T09:17:15;5.18;;;1.30;;
72517;SDS011;60540;51.178;6.738;2024-03-02T09:19:59;1.65;;;0.80;;
72517;SDS011;60540;51.178;6.738;2024-03-02T09:22:43;1.38;;;0.60;;
72517;SDS011;60540;51.178;6.738;2024-03-02T09:25:28;1.40;;;0.52;;
72517;SDS011;60540;51.178;6.738;2024-03-02T09:28:12;0.88;;;0.45;;
72517;SDS011;60540;51.178;6.738;2024-03-02T09:30:56;0.85;;;0.60;;
72517;SDS011;60540;51.178;6.738;2024-03-02T09:33:40;2.58;;;0.57;;
72517;SDS011;60540;51.178;6.738;2024-03-02T09:36:25;0.95;;;0.70;;
72517;SDS011;60540;51.178;6.738;2024-03-02T09:39:09;2.50;;;0.77;;
72517;SDS011;60540;51.178;6.738;2024-03-02T09:41:53;2.65;;;1.02;;
72517;SDS011;60540;51.178;6.738;2024-03-02T09:44:37;1.63;;;0.55;;
72517;SDS011;60540;51.178;6.738;2024-03-02T09:47:23;1.10;;;0.70;;
72517;SDS011;60540;51.178;6.738;2024-03-02T09:50:07;2.35;;;0.80;;
72517;SDS011;60540;51.178;6.738;2024-03-02T09:52:51;2.47;;;0.70;;
72517;SDS011;60540;51.178;6.738;2024-03-02T09:55:36;2.13;;;0.70;;
72517;SDS011;60540;51.178;6.738;2024-03-02T09:58:20;1.48;;;0.60;;
72517;SDS011;60540;51.178;6.738;2024-03-02T10:01:05;2.97;;;0.60;;
72517;SDS011;60540;51.178;6.738;2024-03-02T10:03:50;1.70;;;0.60;;
72517;SDS011;60540;51.178;6.738;2024-03-02T10:06:35;1.77;;;0.70;;
72517;SDS011;60540;51.178;6.738;2024-03-02T10:09:28;1.05;;;0.55;;
72517;SDS011;60540;51.178;6.738;2024-03-02T10:12:13;1.63;;;0.60;;
72517;SDS011;60540;51.178;6.738;2024-03-02T10:15:03;3.20;;;0.70;;
72517;SDS011;60540;51.178;6.738;2024-03-02T10:17:48;1.88;;;0.50;;
72517;SDS011;60540;51.178;6.738;2024-03-02T10:20:32;1.98;;;0.50;;
72517;SDS011;60540;51.178;6.738;2024-03-02T10:23:17;2.05;;;0.70;;
72517;SDS011;60540;51.178;6.738;2024-03-02T10:26:02;0.77;;;0.38;;
72517;SDS011;60540;51.178;6.738;2024-03-02T10:28:52;1.63;;;0.73;;
72517;SDS011;60540;51.178;6.738;2024-03-02T10:31:43;2.30;;;0.50;;
72517;SDS011;60540;51.178;6.738;2024-03-02T10:34:29;1.45;;;0.60;;
72517;SDS011;60540;51.178;6.738;2024-03-02T10:37:15;2.25;;;0.65;;
72517;SDS011;60540;51.178;6.738;2024-03-02T10:40:04;1.65;;;0.65;;
72517;SDS011;60540;51.178;6.738;2024-03-02T10:42:50;2.15;;;0.55;;
72517;SDS011;60540;51.178;6.738;2024-03-02T10:45:35;1.27;;;0.60;;
72517;SDS011;60540;51.178;6.738;2024-03-02T10:48:20;1.33;;;0.68;;
72517;SDS011;60540;51.178;6.738;2024-03-02T10:51:05;1.58;;;0.55;;
72517;SDS011;60540;51.178;6.738;2024-03-02T10:53:49;1.92;;;1.17;;
72517;SDS011;60540;51.178;6.738;2024-03-02T10:56:34;1.15;;;0.70;;
72517;SDS011;60540;51.178;6.738;2024-03-02T11:02:10;1.88;;;0.73;;
72517;SDS011;60540;51.178;6.738;2024-03-02T11:04:56;1.58;;;0.65;;
72517;SDS011;60540;51.178;6.738;2024-03-02T11:07:40;2.60;;;0.68;;
72517;SDS011;60540;51.178;6.738;2024-03-02T11:10:25;1.55;;;0.60;;
72517;SDS011;60540;51.178;6.738;2024-03-02T11:13:09;1.42;;;0.43;;
72517;SDS011;60540;51.178;6.738;2024-03-02T11:15:58;3.08;;;0.80;;
72517;SDS011;60540;51.178;6.738;2024-03-02T11:18:46;1.23;;;0.80;;
72517;SDS011;60540;51.178;6.738;2024-03-02T11:21:31;2.35;;;0.73;;
72517;SDS011;60540;51.178;6.738;2024-03-02T11:27:09;4.45;;;0.98;;
72517;SDS011;60540;51.178;6.738;2024-03-02T11:29:56;2.58;;;0.80;;
72517;SDS011;60540;51.178;6.738;2024-03-02T11:32:41;2.47;;;1.02;;
72517;SDS011;60540;51.178;6.738;2024-03-02T11:35:25;1.88;;;0.98;;
72517;SDS011;60540;51.178;6.738;2024-03-02T11:38:10;1.92;;;0.90;;
72517;SDS011;60540;51.178;6.738;2024-03-02T11:40:54;2.28;;;1.00;;
72517;SDS011;60540;51.178;6.738;2024-03-02T11:43:38;2.65;;;0.93;;
72517;SDS011;60540;51.178;6.738;2024-03-02T11:46:25;2.78;;;1.00;;
72517;SDS011;60540;51.178;6.738;2024-03-02T11:49:13;2.20;;;0.90;;
72517;SDS011;60540;51.178;6.738;2024-03-02T11:52:00;3.00;;;1.00;;
72517;SDS011;60540;51.178;6.738;2024-03-02T11:54:45;2.05;;;0.82;;
72517;SDS011;60540;51.178;6.738;2024-03-02T11:57:30;3.80;;;1.15;;
72517;SDS011;60540;51.178;6.738;2024-03-02T12:00:19;2.35;;;1.52;;
72517;SDS011;60540;51.178;6.738;2024-03-02T12:03:04;2.75;;;0.80;;
72517;SDS011;60540;51.178;6.738;2024-03-02T12:05:49;2.03;;;0.93;;
72517;SDS011;60540;51.178;6.738;2024-03-02T12:08:34;2.50;;;0.70;;
72517;SDS011;60540;51.178;6.738;2024-03-02T12:14:03;3.67;;;0.80;;
72517;SDS011;60540;51.178;6.738;2024-03-02T12:16:48;1.67;;;0.80;;
72517;SDS011;60540;51.178;6.738;2024-03-02T12:19:32;3.67;;;0.90;;
72517;SDS011;60540;51.178;6.738;2024-03-02T12:22:17;1.98;;;0.65;;
72517;SDS011;60540;51.178;6.738;2024-03-02T12:25:01;1.90;;;0.77;;
72517;SDS011;60540;51.178;6.738;2024-03-02T12:27:51;2.97;;;0.90;;
72517;SDS011;60540;51.178;6.738;2024-03-02T12:30:36;2.03;;;0.68;;
72517;SDS011;60540;51.178;6.738;2024-03-02T12:33:21;2.13;;;1.00;;
72517;SDS011;60540;51.178;6.738;2024-03-02T12:36:05;1.60;;;0.70;;
72517;SDS011;60540;51.178;6.738;2024-03-02T12:38:53;2.35;;;1.00;;
72517;SDS011;60540;51.178;6.738;2024-03-02T12:41:38;1.42;;;0.80;;
72517;SDS011;60540;51.178;6.738;2024-03-02T12:44:23;1.98;;;0.73;;
72517;SDS011;60540;51.178;6.738;2024-03-02T12:47:07;1.70;;;0.93;;
72517;SDS011;60540;51.178;6.738;2024-03-02T12:49:51;1.38;;;0.82;;
72517;SDS011;60540;51.178;6.738;2024-03-02T12:52:36;2.65;;;0.85;;
72517;SDS011;60540;51.178;6.738;2024-03-02T12:55:21;1.27;;;0.77;;
72517;SDS011;60540;51.178;6.738;2024-03-02T12:58:08;2.45;;;1.00;;
72517;SDS011;60540;51.178;6.738;2024-03-02T13:01:06;3.08;;;1.17;;
72517;SDS011;60540;51.178;6.738;2024-03-02T13:03:52;2.70;;;0.80;;
72517;SDS011;60540;51.178;6.738;2024-03-02T13:06:37;2.75;;;0.75;;
72517;SDS011;60540;51.178;6.738;2024-03-02T13:09:21;3.38;;;0.90;;
72517;SDS011;60540;51.178;6.738;2024-03-02T13:12:06;2.70;;;0.90;;
72517;SDS011;60540;51.178;6.738;2024-03-02T13:14:53;3.10;;;1.10;;
72517;SDS011;60540;51.178;6.738;2024-03-02T13:17:38;3.17;;;1.20;;
72517;SDS011;60540;51.178;6.738;2024-03-02T13:20:23;3.88;;;1.00;;
72517;SDS011;60540;51.178;6.738;2024-03-02T13:23:07;3.38;;;1.02;;
72517;SDS011;60540;51.178;6.738;2024-03-02T13:25:51;2.35;;;1.10;;
72517;SDS011;60540;51.178;6.738;2024-03-02T13:28:36;2.15;;;0.88;;
72517;SDS011;60540;51.178;6.738;2024-03-02T13:31:20;1.88;;;0.80;;
72517;SDS011;60540;51.178;6.738;2024-03-02T13:34:04;1.65;;;0.90;;
72517;SDS011;60540;51.178;6.738;2024-03-02T13:36:48;1.77;;;1.00;;
72517;SDS011;60540;51.178;6.738;2024-03-02T13:39:33;2.50;;;0.90;;
72517;SDS011;60540;51.178;6.738;2024-03-02T13:42:23;1.77;;;0.90;;
72517;SDS011;60540;51.178;6.738;2024-03-02T13:45:08;2.85;;;1.00;;
72517;SDS011;60540;51.178;6.738;2024-03-02T13:47:52;1.83;;;0.80;;
72517;SDS011;60540;51.178;6.738;2024-03-02T13:50:36;2.08;;;0.90;;
72517;SDS011;60540;51.178;6.738;2024-03-02T13:53:20;1.67;;;1.00;;
72517;SDS011;60540;51.178;6.738;2024-03-02T13:56:05;2.78;;;1.10;;
72517;SDS011;60540;51.178;6.738;2024-03-02T13:58:49;2.13;;;1.00;;
72517;SDS011;60540;51.178;6.738;2024-03-02T14:01:34;1.63;;;0.93;;
72517;SDS011;60540;51.178;6.738;2024-03-02T14:04:18;2.10;;;0.95;;
72517;SDS011;60540;51.178;6.738;2024-03-02T14:07:02;2.00;;;0.80;;
72517;SDS011;60540;51.178;6.738;2024-03-02T14:09:47;1.75;;;0.93;;
72517;SDS011;60540;51.178;6.738;2024-03-02T14:12:31;2.33;;;0.90;;
72517;SDS011;60540;51.178;6.738;2024-03-02T14:15:16;3.22;;;0.98;;
72517;SDS011;60540;51.178;6.738;2024-03-02T14:18:00;3.45;;;1.10;;
72517;SDS011;60540;51.178;6.738;2024-03-02T14:23:32;3.03;;;1.80;;
72517;SDS011;60540;51.178;6.738;2024-03-02T14:26:16;2.58;;;1.40;;
72517;SDS011;60540;51.178;6.738;2024-03-02T14:29:02;3.35;;;1.17;;
72517;SDS011;60540;51.178;6.738;2024-03-02T14:31:46;2.22;;;0.90;;
72517;SDS011;60540;51.178;6.738;2024-03-02T14:34:32;2.10;;;0.95;;
72517;SDS011;60540;51.178;6.738;2024-03-02T14:37:16;2.63;;;1.10;;
72517;SDS011;60540;51.178;6.738;2024-03-02T14:40:01;3.92;;;1.05;;
72517;SDS011;60540;51.178;6.738;2024-03-02T14:42:45;2.95;;;0.90;;
72517;SDS011;60540;51.178;6.738;2024-03-02T14:45:32;1.52;;;0.65;;
72517;SDS011;60540;51.178;6.738;2024-03-02T14:48:16;0.88;;;0.50;;
72517;SDS011;60540;51.178;6.738;2024-03-02T14:51:00;1.15;;;0.70;;
72517;SDS011;60540;51.178;6.738;2024-03-02T14:53:45;1.75;;;0.60;;
72517;SDS011;60540;51.178;6.738;2024-03-02T14:56:30;1.65;;;0.63;;
72517;SDS011;60540;51.178;6.738;2024-03-02T14:59:14;3.70;;;0.90;;
72517;SDS011;60540;51.178;6.738;2024-03-02T15:01:59;1.40;;;0.80;;
72517;SDS011;60540;51.178;6.738;2024-03-02T15:04:43;1.98;;;0.70;;
72517;SDS011;60540;51.178;6.738;2024-03-02T15:07:29;1.88;;;0.70;;
72517;SDS011;60540;51.178;6.738;2024-03-02T15:10:13;1.95;;;0.70;;
72517;SDS011;60540;51.178;6.738;2024-03-02T15:12:58;1.58;;;0.80;;
72517;SDS011;60540;51.178;6.738;2024-03-02T15:15:42;1.13;;;0.70;;
72517;SDS011;60540;51.178;6.738;2024-03-02T15:18:27;1.98;;;0.98;;
72517;SDS011;60540;51.178;6.738;2024-03-02T15:21:11;1.95;;;0.95;;
72517;SDS011;60540;51.178;6.738;2024-03-02T15:23:55;1.92;;;1.00;;
72517;SDS011;60540;51.178;6.738;2024-03-02T15:26:39;2.35;;;0.98;;
72517;SDS011;60540;51.178;6.738;2024-03-02T15:29:24;2.22;;;0.75;;
72517;SDS011;60540;51.178;6.738;2024-03-02T15:32:12;3.15;;;0.90;;
72517;SDS011;60540;51.178;6.738;2024-03-02T15:34:57;2.35;;;1.10;;
72517;SDS011;60540;51.178;6.738;2024-03-02T15:37:41;1.80;;;0.90;;
72517;SDS011;60540;51.178;6.738;2024-03-02T15:43:10;1.70;;;0.90;;
72517;SDS011;60540;51.178;6.738;2024-03-02T15:45:54;1.55;;;0.80;;
72517;SDS011;60540;51.178;6.738;2024-03-02T15:48:38;2.00;;;0.90;;
72517;SDS011;60540;51.178;6.738;2024-03-02T15:51:23;1.75;;;0.93;;
72517;SDS011;60540;51.178;6.738;2024-03-02T15:54:07;2.22;;;1.10;;
72517;SDS011;60540;51.178;6.738;2024-03-02T15:56:52;1.48;;;0.70;;
72517;SDS011;60540;51.178;6.738;2024-03-02T15:59:36;3.15;;;1.00;;
72517;SDS011;60540;51.178;6.738;2024-03-02T16:02:21;2.15;;;0.80;;
72517;SDS011;60540;51.178;6.738;2024-03-02T16:05:05;1.50;;;0.60;;
72517;SDS011;60540;51.178;6.738;2024-03-02T16:07:49;1.75;;;0.60;;
72517;SDS011;60540;51.178;6.738;2024-03-02T16:10:33;3.60;;;0.90;;
72517;SDS011;60540;51.178;6.738;2024-03-02T16:13:17;1.88;;;0.90;;
72517;SDS011;60540;51.178;6.738;2024-03-02T16:16:02;3.28;;;0.80;;
72517;SDS011;60540;51.178;6.738;2024-03-02T16:21:31;1.95;;;0.93;;
72517;SDS011;60540;51.178;6.738;2024-03-02T16:24:15;3.20;;;1.00;;
72517;SDS011;60540;51.178;6.738;2024-03-02T16:26:59;3.92;;;1.17;;
72517;SDS011;60540;51.178;6.738;2024-03-02T16:29:43;1.67;;;1.05;;
72517;SDS011;60540;51.178;6.738;2024-03-02T16:32:27;2.50;;;1.17;;
72517;SDS011;60540;51.178;6.738;2024-03-02T16:35:12;2.53;;;0.70;;
72517;SDS011;60540;51.178;6.738;2024-03-02T16:37:56;2.33;;;0.80;;
72517;SDS011;60540;51.178;6.738;2024-03-02T16:40:41;4.05;;;1.05;;
72517;SDS011;60540;51.178;6.738;2024-03-02T16:43:25;2.47;;;1.00;;
72517;SDS011;60540;51.178;6.738;2024-03-02T16:46:10;2.92;;;1.45;;
72517;SDS011;60540;51.178;6.738;2024-03-02T16:48:54;3.10;;;1.10;;
72517;SDS011;60540;51.178;6.738;2024-03-02T16:51:41;2.05;;;0.90;;
72517;SDS011;60540;51.178;6.738;2024-03-02T16:54:26;2.42;;;1.30;;
72517;SDS011;60540;51.178;6.738;2024-03-02T16:57:11;2.03;;;1.00;;